sensor_id;sensor_type;location;lat;lon;timestamp;temperature;humidity
38380;DHT22;38377;47.418;18.882;2024-02-14T00:01:51;4.20;99.90
38380;DHT22;38377;47.418;18.882;2024-02-14T00:04:16;4.10;99.90
38380;DHT22;38377;47.418;18.882;2024-02-14T00:06:42;4.10;99.90
38380;DHT22;38377;47.418;18.882;2024-02-14T00:09:08;4.10;99.90
38380;DHT22;38377;47.418;18.882;2024-02-14T00:11:34;4.00;99.90
38380;DHT22;38377;47.418;18.882;2024-02-14T00:14:00;4.00;99.90
38380;DHT22;38377;47.418;18.882;2024-02-14T00:16:27;4.00;99.90
38380;DHT22;38377;47.418;18.882;2024-02-14T00:18:55;4.00;99.90
38380;DHT22;38377;47.418;18.882;2024-02-14T00:21:22;3.90;99.90
38380;DHT22;38377;47.418;18.882;2024-02-14T00:23:48;3.90;99.90
38380;DHT22;38377;47.418;18.882;2024-02-14T00:26:13;3.90;99.90
38380;DHT22;38377;47.418;18.882;2024-02-14T00:28:39;3.90;99.90
38380;DHT22;38377;47.418;18.882;2024-02-14T00:31:06;3.90;99.90
38380;DHT22;38377;47.418;18.882;2024-02-14T00:33:32;3.90;99.90
38380;DHT22;38377;47.418;18.882;2024-02-14T00:35:57;4.00;99.90
38380;DHT22;38377;47.418;18.882;2024-02-14T00:38:23;3.90;99.90
38380;DHT22;38377;47.418;18.882;2024-02-14T00:40:48;3.90;99.90
38380;DHT22;38377;47.418;18.882;2024-02-14T00:43:14;3.90;99.90
38380;DHT22;38377;47.418;18.882;2024-02-14T00:45:40;3.90;99.90
38380;DHT22;38377;47.418;18.882;2024-02-14T00:48:05;4.00;99.90
38380;DHT22;38377;47.418;18.882;2024-02-14T00:50:32;4.00;99.90
38380;DHT22;38377;47.418;18.882;2024-02-14T00:52:59;3.90;99.90
38380;DHT22;38377;47.418;18.882;2024-02-14T00:55:24;3.90;99.90
38380;DHT22;38377;47.418;18.882;2024-02-14T00:57:50;3.90;99.90
38380;DHT22;38377;47.418;18.882;2024-02-14T01:00:16;3.80;99.90
38380;DHT22;38377;47.418;18.882;2024-02-14T01:02:42;3.80;99.90
38380;DHT22;38377;47.418;18.882;2024-02-14T01:05:08;3.80;99.90
38380;DHT22;38377;47.418;18.882;2024-02-14T01:07:35;3.70;99.90
38380;DHT22;38377;47.418;18.882;2024-02-14T01:10:00;3.70;99.90
38380;DHT22;38377;47.418;18.882;2024-02-14T01:12:26;3.70;99.90
38380;DHT22;38377;47.418;18.882;2024-02-14T01:14:52;3.70;99.90
38380;DHT22;38377;47.418;18.882;2024-02-14T01:17:17;3.70;99.90
38380;DHT22;38377;47.418;18.882;2024-02-14T01:19:43;3.70;99.90
38380;DHT22;38377;47.418;18.882;2024-02-14T01:22:09;3.70;99.90
38380;DHT22;38377;47.418;18.882;2024-02-14T01:24:34;3.70;99.90
38380;DHT22;38377;47.418;18.882;2024-02-14T01:27:00;3.70;99.90
38380;DHT22;38377;47.418;18.882;2024-02-14T01:29:26;3.60;99.90
38380;DHT22;38377;47.418;18.882;2024-02-14T01:31:52;3.50;99.90
38380;DHT22;38377;47.418;18.882;2024-02-14T01:34:18;3.60;99.90
38380;DHT22;38377;47.418;18.882;2024-02-14T01:36:43;3.60;99.90
38380;DHT22;38377;47.418;18.882;2024-02-14T01:39:09;3.60;99.90
38380;DHT22;38377;47.418;18.882;2024-02-14T01:41:45;3.70;99.90
38380;DHT22;38377;47.418;18.882;2024-02-14T01:44:11;3.70;99.90
38380;DHT22;38377;47.418;18.882;2024-02-14T01:46:37;3.70;99.90
38380;DHT22;38377;47.418;18.882;2024-02-14T01:49:04;3.60;99.90
38380;DHT22;38377;47.418;18.882;2024-02-14T01:51:30;3.60;99.90
38380;DHT22;38377;47.418;18.882;2024-02-14T01:53:57;3.60;99.90
38380;DHT22;38377;47.418;18.882;2024-02-14T01:56:24;3.60;99.90
38380;DHT22;38377;47.418;18.882;2024-02-14T01:58:51;3.70;99.90
38380;DHT22;38377;47.418;18.882;2024-02-14T02:01:18;3.70;99.90
38380;DHT22;38377;47.418;18.882;2024-02-14T02:03:43;3.80;99.90
38380;DHT22;38377;47.418;18.882;2024-02-14T02:06:09;3.80;99.90
38380;DHT22;38377;47.418;18.882;2024-02-14T02:08:35;3.70;99.90
38380;DHT22;38377;47.418;18.882;2024-02-14T02:11:01;3.70;99.90
38380;DHT22;38377;47.418;18.882;2024-02-14T02:13:27;3.70;99.90
38380;DHT22;38377;47.418;18.882;2024-02-14T02:15:53;3.70;99.90
38380;DHT22;38377;47.418;18.882;2024-02-14T02:18:19;3.60;99.90
38380;DHT22;38377;47.418;18.882;2024-02-14T02:20:45;3.60;99.90
38380;DHT22;38377;47.418;18.882;2024-02-14T02:23:14;3.60;99.90
38380;DHT22;38377;47.418;18.882;2024-02-14T02:25:41;3.60;99.90
38380;DHT22;38377;47.418;18.882;2024-02-14T02:28:06;3.60;99.90
38380;DHT22;38377;47.418;18.882;2024-02-14T02:30:34;3.60;99.90
38380;DHT22;38377;47.418;18.882;2024-02-14T02:33:01;3.50;99.90
38380;DHT22;38377;47.418;18.882;2024-02-14T02:35:28;3.40;99.90
38380;DHT22;38377;47.418;18.882;2024-02-14T02:37:53;3.40;99.90
38380;DHT22;38377;47.418;18.882;2024-02-14T02:40:19;3.40;99.90
38380;DHT22;38377;47.418;18.882;2024-02-14T02:42:47;3.40;99.90
38380;DHT22;38377;47.418;18.882;2024-02-14T02:45:13;3.50;99.90
38380;DHT22;38377;47.418;18.882;2024-02-14T02:47:38;3.70;99.90
38380;DHT22;38377;47.418;18.882;2024-02-14T02:50:05;3.80;99.90
38380;DHT22;38377;47.418;18.882;2024-02-14T02:52:31;3.90;99.90
38380;DHT22;38377;47.418;18.882;2024-02-14T02:54:57;3.90;99.90
38380;DHT22;38377;47.418;18.882;2024-02-14T02:57:23;3.90;99.90
38380;DHT22;38377;47.418;18.882;2024-02-14T02:59:48;3.80;99.90
38380;DHT22;38377;47.418;18.882;2024-02-14T03:02:15;3.80;99.90
38380;DHT22;38377;47.418;18.882;2024-02-14T03:04:41;3.70;99.90
38380;DHT22;38377;47.418;18.882;2024-02-14T03:07:08;3.60;99.90
38380;DHT22;38377;47.418;18.882;2024-02-14T03:09:34;3.60;99.90
38380;DHT22;38377;47.418;18.882;2024-02-14T03:12:02;3.50;99.90
38380;DHT22;38377;47.418;18.882;2024-02-14T03:14:30;3.40;99.90
38380;DHT22;38377;47.418;18.882;2024-02-14T03:17:00;3.30;99.90
38380;DHT22;38377;47.418;18.882;2024-02-14T03:19:27;3.20;99.90
38380;DHT22;38377;47.418;18.882;2024-02-14T03:21:54;3.10;99.90
38380;DHT22;38377;47.418;18.882;2024-02-14T03:24:20;3.10;99.90
38380;DHT22;38377;47.418;18.882;2024-02-14T03:26:45;3.00;99.90
38380;DHT22;38377;47.418;18.882;2024-02-14T03:29:11;3.00;99.90
38380;DHT22;38377;47.418;18.882;2024-02-14T03:31:37;2.90;99.90
38380;DHT22;38377;47.418;18.882;2024-02-14T03:34:03;2.90;99.90
38380;DHT22;38377;47.418;18.882;2024-02-14T03:36:29;2.80;99.90
38380;DHT22;38377;47.418;18.882;2024-02-14T03:38:57;2.80;99.90
38380;DHT22;38377;47.418;18.882;2024-02-14T03:41:23;2.80;99.90
38380;DHT22;38377;47.418;18.882;2024-02-14T03:43:49;2.90;99.90
38380;DHT22;38377;47.418;18.882;2024-02-14T03:46:18;2.90;99.90
38380;DHT22;38377;47.418;18.882;2024-02-14T03:48:46;2.90;99.90
38380;DHT22;38377;47.418;18.882;2024-02-14T03:51:13;2.90;99.90
38380;DHT22;38377;47.418;18.882;2024-02-14T03:53:39;2.90;99.90
38380;DHT22;38377;47.418;18.882;2024-02-14T03:56:05;2.90;99.90
38380;DHT22;38377;47.418;18.882;2024-02-14T03:58:32;2.90;99.90
38380;DHT22;38377;47.418;18.882;2024-02-14T04:01:02;2.90;99.90
38380;DHT22;38377;47.418;18.882;2024-02-14T04:03:28;2.80;99.90
38380;DHT22;38377;47.418;18.882;2024-02-14T04:05:54;2.80;99.90
38380;DHT22;38377;47.418;18.882;2024-02-14T04:08:20;2.60;99.90
38380;DHT22;38377;47.418;18.882;2024-02-14T04:10:46;2.50;99.90
38380;DHT22;38377;47.418;18.882;2024-02-14T04:13:11;2.40;99.90
38380;DHT22;38377;47.418;18.882;2024-02-14T04:15:37;2.30;99.90
38380;DHT22;38377;47.418;18.882;2024-02-14T04:18:03;2.30;99.90
38380;DHT22;38377;47.418;18.882;2024-02-14T04:20:31;2.40;99.90
38380;DHT22;38377;47.418;18.882;2024-02-14T04:22:57;2.40;99.90
38380;DHT22;38377;47.418;18.882;2024-02-14T04:25:24;2.50;99.90
38380;DHT22;38377;47.418;18.882;2024-02-14T04:27:49;2.50;99.90
38380;DHT22;38377;47.418;18.882;2024-02-14T04:30:15;2.50;99.90
38380;DHT22;38377;47.418;18.882;2024-02-14T04:32:41;2.50;99.90
38380;DHT22;38377;47.418;18.882;2024-02-14T04:35:09;2.50;99.90
38380;DHT22;38377;47.418;18.882;2024-02-14T04:37:34;2.60;99.90
38380;DHT22;38377;47.418;18.882;2024-02-14T04:40:00;2.70;99.90
38380;DHT22;38377;47.418;18.882;2024-02-14T04:42:26;2.70;99.90
38380;DHT22;38377;47.418;18.882;2024-02-14T04:44:54;2.70;99.90
38380;DHT22;38377;47.418;18.882;2024-02-14T04:47:20;2.80;99.90
38380;DHT22;38377;47.418;18.882;2024-02-14T04:49:46;2.80;99.90
38380;DHT22;38377;47.418;18.882;2024-02-14T04:52:11;2.90;99.90
38380;DHT22;38377;47.418;18.882;2024-02-14T04:54:37;2.90;99.90
38380;DHT22;38377;47.418;18.882;2024-02-14T04:57:02;3.00;99.90
38380;DHT22;38377;47.418;18.882;2024-02-14T04:59:30;3.10;99.90
38380;DHT22;38377;47.418;18.882;2024-02-14T05:01:55;3.10;99.90
38380;DHT22;38377;47.418;18.882;2024-02-14T05:04:21;3.10;99.90
38380;DHT22;38377;47.418;18.882;2024-02-14T05:06:48;3.10;99.90
38380;DHT22;38377;47.418;18.882;2024-02-14T05:09:13;3.00;99.90
38380;DHT22;38377;47.418;18.882;2024-02-14T05:11:40;3.00;99.90
38380;DHT22;38377;47.418;18.882;2024-02-14T05:14:06;3.00;99.90
38380;DHT22;38377;47.418;18.882;2024-02-14T05:16:31;3.00;99.90
38380;DHT22;38377;47.418;18.882;2024-02-14T05:18:57;2.90;99.90
38380;DHT22;38377;47.418;18.882;2024-02-14T05:21:22;2.90;99.90
38380;DHT22;38377;47.418;18.882;2024-02-14T05:23:48;2.90;99.90
38380;DHT22;38377;47.418;18.882;2024-02-14T05:26:15;2.80;99.90
38380;DHT22;38377;47.418;18.882;2024-02-14T05:28:40;2.70;99.90
38380;DHT22;38377;47.418;18.882;2024-02-14T05:31:06;2.70;99.90
38380;DHT22;38377;47.418;18.882;2024-02-14T05:33:32;2.70;99.90
38380;DHT22;38377;47.418;18.882;2024-02-14T05:35:58;2.70;99.90
38380;DHT22;38377;47.418;18.882;2024-02-14T05:38:24;2.60;99.90
38380;DHT22;38377;47.418;18.882;2024-02-14T05:40:49;2.60;99.90
38380;DHT22;38377;47.418;18.882;2024-02-14T05:43:15;2.50;99.90
38380;DHT22;38377;47.418;18.882;2024-02-14T05:45:41;2.40;99.90
38380;DHT22;38377;47.418;18.882;2024-02-14T05:48:07;2.30;99.90
38380;DHT22;38377;47.418;18.882;2024-02-14T05:50:33;2.30;99.90
38380;DHT22;38377;47.418;18.882;2024-02-14T05:52:59;2.20;99.90
38380;DHT22;38377;47.418;18.882;2024-02-14T05:55:25;2.20;99.90
38380;DHT22;38377;47.418;18.882;2024-02-14T05:57:52;2.10;99.90
38380;DHT22;38377;47.418;18.882;2024-02-14T06:00:23;2.10;99.90
38380;DHT22;38377;47.418;18.882;2024-02-14T06:02:48;2.00;99.90
38380;DHT22;38377;47.418;18.882;2024-02-14T06:05:15;1.90;99.90
38380;DHT22;38377;47.418;18.882;2024-02-14T06:07:41;1.80;99.90
38380;DHT22;38377;47.418;18.882;2024-02-14T06:10:08;1.60;99.90
38380;DHT22;38377;47.418;18.882;2024-02-14T06:12:34;1.60;99.90
38380;DHT22;38377;47.418;18.882;2024-02-14T06:15:01;1.50;99.90
38380;DHT22;38377;47.418;18.882;2024-02-14T06:17:26;1.30;99.90
38380;DHT22;38377;47.418;18.882;2024-02-14T06:19:53;1.20;99.90
38380;DHT22;38377;47.418;18.882;2024-02-14T06:22:18;1.20;99.90
38380;DHT22;38377;47.418;18.882;2024-02-14T06:24:44;1.10;99.90
38380;DHT22;38377;47.418;18.882;2024-02-14T06:27:10;1.10;99.90
38380;DHT22;38377;47.418;18.882;2024-02-14T06:29:35;1.20;99.90
38380;DHT22;38377;47.418;18.882;2024-02-14T06:32:01;1.20;99.90
38380;DHT22;38377;47.418;18.882;2024-02-14T06:34:27;1.30;99.90
38380;DHT22;38377;47.418;18.882;2024-02-14T06:36:54;1.30;99.90
38380;DHT22;38377;47.418;18.882;2024-02-14T06:39:20;1.40;99.90
38380;DHT22;38377;47.418;18.882;2024-02-14T06:41:46;1.50;99.90
38380;DHT22;38377;47.418;18.882;2024-02-14T06:44:13;1.60;99.90
38380;DHT22;38377;47.418;18.882;2024-02-14T06:46:38;1.70;99.90
38380;DHT22;38377;47.418;18.882;2024-02-14T06:49:04;1.70;99.90
38380;DHT22;38377;47.418;18.882;2024-02-14T06:51:30;1.80;99.90
38380;DHT22;38377;47.418;18.882;2024-02-14T06:53:56;1.80;99.90
38380;DHT22;38377;47.418;18.882;2024-02-14T06:56:22;1.80;99.90
38380;DHT22;38377;47.418;18.882;2024-02-14T06:58:47;1.90;99.90
38380;DHT22;38377;47.418;18.882;2024-02-14T07:01:18;2.10;99.90
38380;DHT22;38377;47.418;18.882;2024-02-14T07:03:47;2.20;99.90
38380;DHT22;38377;47.418;18.882;2024-02-14T07:06:13;2.30;99.90
38380;DHT22;38377;47.418;18.882;2024-02-14T07:08:42;2.60;99.90
38380;DHT22;38377;47.418;18.882;2024-02-14T07:11:07;2.80;99.90
38380;DHT22;38377;47.418;18.882;2024-02-14T07:13:33;3.10;99.90
38380;DHT22;38377;47.418;18.882;2024-02-14T07:15:58;3.30;99.90
38380;DHT22;38377;47.418;18.882;2024-02-14T07:18:24;3.70;99.90
38380;DHT22;38377;47.418;18.882;2024-02-14T07:20:50;3.90;99.90
38380;DHT22;38377;47.418;18.882;2024-02-14T07:23:16;4.10;99.90
38380;DHT22;38377;47.418;18.882;2024-02-14T07:25:42;4.30;99.90
38380;DHT22;38377;47.418;18.882;2024-02-14T07:28:08;4.60;99.90
38380;DHT22;38377;47.418;18.882;2024-02-14T07:30:34;4.80;99.90
38380;DHT22;38377;47.418;18.882;2024-02-14T07:32:59;4.80;99.90
38380;DHT22;38377;47.418;18.882;2024-02-14T07:35:25;5.10;99.90
38380;DHT22;38377;47.418;18.882;2024-02-14T07:37:51;5.30;99.90
38380;DHT22;38377;47.418;18.882;2024-02-14T07:40:17;5.50;99.90
38380;DHT22;38377;47.418;18.882;2024-02-14T07:42:42;5.60;99.90
38380;DHT22;38377;47.418;18.882;2024-02-14T07:45:08;5.80;99.90
38380;DHT22;38377;47.418;18.882;2024-02-14T07:47:34;5.90;99.50
38380;DHT22;38377;47.418;18.882;2024-02-14T07:50:00;6.00;98.40
38380;DHT22;38377;47.418;18.882;2024-02-14T07:52:26;6.10;97.60
38380;DHT22;38377;47.418;18.882;2024-02-14T07:54:52;6.20;96.90
38380;DHT22;38377;47.418;18.882;2024-02-14T07:57:19;6.30;96.50
38380;DHT22;38377;47.418;18.882;2024-02-14T07:59:45;6.30;96.10
38380;DHT22;38377;47.418;18.882;2024-02-14T08:02:11;6.40;96.20
38380;DHT22;38377;47.418;18.882;2024-02-14T08:04:36;6.50;95.50
38380;DHT22;38377;47.418;18.882;2024-02-14T08:07:02;6.60;95.10
38380;DHT22;38377;47.418;18.882;2024-02-14T08:09:29;6.70;96.00
38380;DHT22;38377;47.418;18.882;2024-02-14T08:11:55;6.80;95.60
38380;DHT22;38377;47.418;18.882;2024-02-14T08:14:20;6.80;95.50
38380;DHT22;38377;47.418;18.882;2024-02-14T08:16:46;6.90;94.80
38380;DHT22;38377;47.418;18.882;2024-02-14T08:19:11;7.00;94.00
38380;DHT22;38377;47.418;18.882;2024-02-14T08:21:37;7.10;94.10
38380;DHT22;38377;47.418;18.882;2024-02-14T08:24:03;7.10;93.70
38380;DHT22;38377;47.418;18.882;2024-02-14T08:26:28;7.10;95.40
38380;DHT22;38377;47.418;18.882;2024-02-14T08:28:54;7.10;94.30
38380;DHT22;38377;47.418;18.882;2024-02-14T08:31:20;7.00;94.60
38380;DHT22;38377;47.418;18.882;2024-02-14T08:33:45;7.10;94.70
38380;DHT22;38377;47.418;18.882;2024-02-14T08:36:11;7.00;94.40
38380;DHT22;38377;47.418;18.882;2024-02-14T08:38:37;7.10;95.40
38380;DHT22;38377;47.418;18.882;2024-02-14T08:41:03;7.30;95.20
38380;DHT22;38377;47.418;18.882;2024-02-14T08:43:29;7.40;93.70
38380;DHT22;38377;47.418;18.882;2024-02-14T08:45:56;7.50;93.10
38380;DHT22;38377;47.418;18.882;2024-02-14T08:48:22;7.50;93.60
38380;DHT22;38377;47.418;18.882;2024-02-14T08:50:48;7.30;93.00
38380;DHT22;38377;47.418;18.882;2024-02-14T08:53:13;7.30;93.80
38380;DHT22;38377;47.418;18.882;2024-02-14T08:55:42;7.30;93.80
38380;DHT22;38377;47.418;18.882;2024-02-14T08:58:08;7.40;93.80
38380;DHT22;38377;47.418;18.882;2024-02-14T09:00:37;7.50;93.20
38380;DHT22;38377;47.418;18.882;2024-02-14T09:03:04;7.60;92.40
38380;DHT22;38377;47.418;18.882;2024-02-14T09:05:30;7.60;91.40
38380;DHT22;38377;47.418;18.882;2024-02-14T09:07:55;7.60;91.70
38380;DHT22;38377;47.418;18.882;2024-02-14T09:10:21;7.70;91.90
38380;DHT22;38377;47.418;18.882;2024-02-14T09:12:47;7.80;92.10
38380;DHT22;38377;47.418;18.882;2024-02-14T09:15:13;7.80;90.40
38380;DHT22;38377;47.418;18.882;2024-02-14T09:17:39;7.80;90.60
38380;DHT22;38377;47.418;18.882;2024-02-14T09:20:06;7.70;90.80
38380;DHT22;38377;47.418;18.882;2024-02-14T09:22:35;7.80;90.40
38380;DHT22;38377;47.418;18.882;2024-02-14T09:25:01;7.90;91.30
38380;DHT22;38377;47.418;18.882;2024-02-14T09:27:30;7.90;90.80
38380;DHT22;38377;47.418;18.882;2024-02-14T09:29:55;8.00;91.00
38380;DHT22;38377;47.418;18.882;2024-02-14T09:32:21;8.00;90.90
38380;DHT22;38377;47.418;18.882;2024-02-14T09:34:46;8.00;90.70
38380;DHT22;38377;47.418;18.882;2024-02-14T09:37:12;8.00;89.90
38380;DHT22;38377;47.418;18.882;2024-02-14T09:39:39;8.20;90.70
38380;DHT22;38377;47.418;18.882;2024-02-14T09:42:09;8.30;90.30
38380;DHT22;38377;47.418;18.882;2024-02-14T09:44:36;8.20;89.30
38380;DHT22;38377;47.418;18.882;2024-02-14T09:47:04;8.00;89.80
38380;DHT22;38377;47.418;18.882;2024-02-14T09:49:31;8.00;88.80
38380;DHT22;38377;47.418;18.882;2024-02-14T09:51:59;7.90;90.30
38380;DHT22;38377;47.418;18.882;2024-02-14T09:54:26;8.00;89.90
38380;DHT22;38377;47.418;18.882;2024-02-14T09:56:52;8.10;90.00
38380;DHT22;38377;47.418;18.882;2024-02-14T09:59:19;8.30;90.30
38380;DHT22;38377;47.418;18.882;2024-02-14T10:01:46;8.30;90.10
38380;DHT22;38377;47.418;18.882;2024-02-14T10:04:13;8.50;86.50
38380;DHT22;38377;47.418;18.882;2024-02-14T10:06:38;8.60;87.10
38380;DHT22;38377;47.418;18.882;2024-02-14T10:09:04;8.70;87.90
38380;DHT22;38377;47.418;18.882;2024-02-14T10:11:31;8.70;87.60
38380;DHT22;38377;47.418;18.882;2024-02-14T10:13:57;8.80;87.00
38380;DHT22;38377;47.418;18.882;2024-02-14T10:16:27;8.80;84.60
38380;DHT22;38377;47.418;18.882;2024-02-14T10:18:52;8.70;86.50
38380;DHT22;38377;47.418;18.882;2024-02-14T10:21:18;8.70;86.60
38380;DHT22;38377;47.418;18.882;2024-02-14T10:23:49;8.80;87.20
38380;DHT22;38377;47.418;18.882;2024-02-14T10:26:18;9.00;87.20
38380;DHT22;38377;47.418;18.882;2024-02-14T10:28:45;9.20;85.90
38380;DHT22;38377;47.418;18.882;2024-02-14T10:31:11;9.10;85.10
38380;DHT22;38377;47.418;18.882;2024-02-14T10:33:37;8.90;85.80
38380;DHT22;38377;47.418;18.882;2024-02-14T10:36:03;8.90;86.60
38380;DHT22;38377;47.418;18.882;2024-02-14T10:38:32;8.90;86.50
38380;DHT22;38377;47.418;18.882;2024-02-14T10:40:59;9.10;85.80
38380;DHT22;38377;47.418;18.882;2024-02-14T10:43:26;9.10;86.50
38380;DHT22;38377;47.418;18.882;2024-02-14T10:45:53;9.20;86.80
38380;DHT22;38377;47.418;18.882;2024-02-14T10:48:22;9.20;87.00
38380;DHT22;38377;47.418;18.882;2024-02-14T10:50:52;9.20;88.00
38380;DHT22;38377;47.418;18.882;2024-02-14T10:53:18;9.30;85.80
38380;DHT22;38377;47.418;18.882;2024-02-14T10:55:47;9.20;86.30
38380;DHT22;38377;47.418;18.882;2024-02-14T10:58:15;9.20;87.00
38380;DHT22;38377;47.418;18.882;2024-02-14T11:00:42;9.40;88.00
38380;DHT22;38377;47.418;18.882;2024-02-14T11:03:09;9.60;87.00
38380;DHT22;38377;47.418;18.882;2024-02-14T11:05:45;9.70;87.60
38380;DHT22;38377;47.418;18.882;2024-02-14T11:08:14;9.80;88.10
38380;DHT22;38377;47.418;18.882;2024-02-14T11:10:40;9.90;85.30
38380;DHT22;38377;47.418;18.882;2024-02-14T11:13:12;9.90;84.60
38380;DHT22;38377;47.418;18.882;2024-02-14T11:15:39;9.80;85.30
38380;DHT22;38377;47.418;18.882;2024-02-14T11:18:06;9.80;86.30
38380;DHT22;38377;47.418;18.882;2024-02-14T11:20:35;9.80;87.00
38380;DHT22;38377;47.418;18.882;2024-02-14T11:23:03;9.80;87.00
38380;DHT22;38377;47.418;18.882;2024-02-14T11:25:31;9.70;86.90
38380;DHT22;38377;47.418;18.882;2024-02-14T11:27:58;9.80;88.20
38380;DHT22;38377;47.418;18.882;2024-02-14T11:30:29;10.00;86.90
38380;DHT22;38377;47.418;18.882;2024-02-14T11:32:55;9.90;86.30
38380;DHT22;38377;47.418;18.882;2024-02-14T11:35:21;9.90;86.90
38380;DHT22;38377;47.418;18.882;2024-02-14T11:37:53;9.90;88.40
38380;DHT22;38377;47.418;18.882;2024-02-14T11:40:19;9.90;84.80
38380;DHT22;38377;47.418;18.882;2024-02-14T11:42:46;10.00;84.00
38380;DHT22;38377;47.418;18.882;2024-02-14T11:45:13;9.90;84.40
38380;DHT22;38377;47.418;18.882;2024-02-14T11:47:38;10.00;83.50
38380;DHT22;38377;47.418;18.882;2024-02-14T11:50:05;10.10;84.80
38380;DHT22;38377;47.418;18.882;2024-02-14T11:52:31;10.10;84.60
38380;DHT22;38377;47.418;18.882;2024-02-14T11:54:57;10.20;82.40
38380;DHT22;38377;47.418;18.882;2024-02-14T11:57:26;10.20;83.90
38380;DHT22;38377;47.418;18.882;2024-02-14T11:59:52;10.30;84.30
38380;DHT22;38377;47.418;18.882;2024-02-14T12:02:19;10.30;82.90
38380;DHT22;38377;47.418;18.882;2024-02-14T12:04:46;10.40;83.00
38380;DHT22;38377;47.418;18.882;2024-02-14T12:07:12;10.60;81.40
38380;DHT22;38377;47.418;18.882;2024-02-14T12:09:38;10.60;81.80
38380;DHT22;38377;47.418;18.882;2024-02-14T12:12:04;10.80;81.00
38380;DHT22;38377;47.418;18.882;2024-02-14T12:14:32;10.70;80.90
38380;DHT22;38377;47.418;18.882;2024-02-14T12:17:00;10.70;80.30
38380;DHT22;38377;47.418;18.882;2024-02-14T12:19:28;10.60;79.00
38380;DHT22;38377;47.418;18.882;2024-02-14T12:21:55;10.50;79.00
38380;DHT22;38377;47.418;18.882;2024-02-14T12:24:27;10.50;79.30
38380;DHT22;38377;47.418;18.882;2024-02-14T12:26:54;10.30;79.30
38380;DHT22;38377;47.418;18.882;2024-02-14T12:29:19;10.30;79.00
38380;DHT22;38377;47.418;18.882;2024-02-14T12:31:45;10.30;78.90
38380;DHT22;38377;47.418;18.882;2024-02-14T12:34:11;10.30;79.50
38380;DHT22;38377;47.418;18.882;2024-02-14T12:36:37;10.20;79.00
38380;DHT22;38377;47.418;18.882;2024-02-14T12:39:03;10.30;80.30
38380;DHT22;38377;47.418;18.882;2024-02-14T12:41:29;10.40;80.10
38380;DHT22;38377;47.418;18.882;2024-02-14T12:43:56;10.50;79.30
38380;DHT22;38377;47.418;18.882;2024-02-14T12:46:22;10.50;79.40
38380;DHT22;38377;47.418;18.882;2024-02-14T12:48:47;10.40;78.70
38380;DHT22;38377;47.418;18.882;2024-02-14T12:51:16;10.40;79.60
38380;DHT22;38377;47.418;18.882;2024-02-14T12:53:42;10.40;77.90
38380;DHT22;38377;47.418;18.882;2024-02-14T12:56:08;10.30;78.40
38380;DHT22;38377;47.418;18.882;2024-02-14T12:58:34;10.30;77.60
38380;DHT22;38377;47.418;18.882;2024-02-14T13:01:00;10.30;81.00
38380;DHT22;38377;47.418;18.882;2024-02-14T13:03:26;10.30;78.70
38380;DHT22;38377;47.418;18.882;2024-02-14T13:05:53;10.20;79.10
38380;DHT22;38377;47.418;18.882;2024-02-14T13:08:20;10.20;79.80
38380;DHT22;38377;47.418;18.882;2024-02-14T13:10:46;10.20;80.10
38380;DHT22;38377;47.418;18.882;2024-02-14T13:13:12;10.10;80.40
38380;DHT22;38377;47.418;18.882;2024-02-14T13:15:38;10.10;80.60
38380;DHT22;38377;47.418;18.882;2024-02-14T13:18:03;10.20;80.40
38380;DHT22;38377;47.418;18.882;2024-02-14T13:20:29;10.20;81.70
38380;DHT22;38377;47.418;18.882;2024-02-14T13:22:55;10.20;81.40
38380;DHT22;38377;47.418;18.882;2024-02-14T13:25:21;10.20;80.10
38380;DHT22;38377;47.418;18.882;2024-02-14T13:27:47;10.20;80.90
38380;DHT22;38377;47.418;18.882;2024-02-14T13:30:13;10.20;81.40
38380;DHT22;38377;47.418;18.882;2024-02-14T13:32:39;10.00;80.70
38380;DHT22;38377;47.418;18.882;2024-02-14T13:35:05;10.00;80.50
38380;DHT22;38377;47.418;18.882;2024-02-14T13:37:32;10.00;81.20
38380;DHT22;38377;47.418;18.882;2024-02-14T13:39:57;10.10;83.30
38380;DHT22;38377;47.418;18.882;2024-02-14T13:42:23;10.10;81.10
38380;DHT22;38377;47.418;18.882;2024-02-14T13:48:11;9.90;83.80
38380;DHT22;38377;47.418;18.882;2024-02-14T13:50:37;9.90;82.90
38380;DHT22;38377;47.418;18.882;2024-02-14T13:53:04;9.90;82.60
38380;DHT22;38377;47.418;18.882;2024-02-14T13:55:29;9.90;81.00
38380;DHT22;38377;47.418;18.882;2024-02-14T13:57:55;9.90;83.20
38380;DHT22;38377;47.418;18.882;2024-02-14T14:00:21;9.90;83.40
38380;DHT22;38377;47.418;18.882;2024-02-14T14:02:46;9.90;83.00
38380;DHT22;38377;47.418;18.882;2024-02-14T14:05:12;9.90;82.80
38380;DHT22;38377;47.418;18.882;2024-02-14T14:07:39;9.90;82.60
38380;DHT22;38377;47.418;18.882;2024-02-14T14:10:06;9.80;83.30
38380;DHT22;38377;47.418;18.882;2024-02-14T14:12:33;9.80;84.00
38380;DHT22;38377;47.418;18.882;2024-02-14T14:15:00;9.70;82.70
38380;DHT22;38377;47.418;18.882;2024-02-14T14:17:27;9.70;84.10
38380;DHT22;38377;47.418;18.882;2024-02-14T14:19:53;9.70;84.90
38380;DHT22;38377;47.418;18.882;2024-02-14T14:22:19;9.70;81.90
38380;DHT22;38377;47.418;18.882;2024-02-14T14:24:45;9.60;82.80
38380;DHT22;38377;47.418;18.882;2024-02-14T14:27:10;9.50;82.50
38380;DHT22;38377;47.418;18.882;2024-02-14T14:29:42;9.60;84.00
38380;DHT22;38377;47.418;18.882;2024-02-14T14:32:09;9.70;84.40
38380;DHT22;38377;47.418;18.882;2024-02-14T14:34:34;9.80;83.90
38380;DHT22;38377;47.418;18.882;2024-02-14T14:37:00;9.80;83.10
38380;DHT22;38377;47.418;18.882;2024-02-14T14:39:26;9.70;84.20
38380;DHT22;38377;47.418;18.882;2024-02-14T14:41:52;9.70;84.10
38380;DHT22;38377;47.418;18.882;2024-02-14T14:44:19;9.70;84.10
38380;DHT22;38377;47.418;18.882;2024-02-14T14:46:44;9.60;84.00
38380;DHT22;38377;47.418;18.882;2024-02-14T14:49:11;9.60;84.90
38380;DHT22;38377;47.418;18.882;2024-02-14T14:51:37;9.60;85.10
38380;DHT22;38377;47.418;18.882;2024-02-14T14:54:04;9.60;85.00
38380;DHT22;38377;47.418;18.882;2024-02-14T14:56:31;9.50;85.00
38380;DHT22;38377;47.418;18.882;2024-02-14T14:58:56;9.60;85.20
38380;DHT22;38377;47.418;18.882;2024-02-14T15:01:25;9.50;85.90
38380;DHT22;38377;47.418;18.882;2024-02-14T15:03:51;9.50;85.70
38380;DHT22;38377;47.418;18.882;2024-02-14T15:06:18;9.50;86.40
38380;DHT22;38377;47.418;18.882;2024-02-14T15:08:45;9.50;86.70
38380;DHT22;38377;47.418;18.882;2024-02-14T15:11:13;9.50;86.50
38380;DHT22;38377;47.418;18.882;2024-02-14T15:13:44;9.50;88.20
38380;DHT22;38377;47.418;18.882;2024-02-14T15:16:11;9.40;87.00
38380;DHT22;38377;47.418;18.882;2024-02-14T15:18:38;9.30;86.70
38380;DHT22;38377;47.418;18.882;2024-02-14T15:21:06;9.30;88.80
38380;DHT22;38377;47.418;18.882;2024-02-14T15:23:32;9.10;88.40
38380;DHT22;38377;47.418;18.882;2024-02-14T15:25:58;9.10;89.80
38380;DHT22;38377;47.418;18.882;2024-02-14T15:28:32;9.00;89.70